Time;durP1;ratioP1;P1;durP2;ratioP2;P2;SDS_P1;SDS_P2;PMS_P1;PMS_P2;Temp;Humidity;BMP_temperature;BMP_pressure;BME280_temperature;BME280_humidity;BME280_pressure;Samples;Min_cycle;Max_cycle;Signal;HPM_P1;HPM_P2
2022/07/15 00:02:08;;;;;;;3.63;2.20;;;18.10;99.90;;;;;;6125684;23;20206;-74
2022/07/15 00:04:34;;;;;;;3.10;2.40;;;18.00;99.90;;;;;;6126073;23;20154;-74
2022/07/15 00:07:00;;;;;;;2.60;2.40;;;18.00;99.90;;;;;;6126006;23;20205;-74
2022/07/15 00:12:11;;;;;;;4.28;2.30;;;17.90;99.90;;;;;;6125690;23;20176;-74
2022/07/15 00:14:37;;;;;;;4.00;2.60;;;17.90;99.90;;;;;;6125829;23;20177;-74
2022/07/15 00:17:03;;;;;;;2.83;2.40;;;17.80;99.90;;;;;;6125966;23;20151;-74
2022/07/15 00:19:29;;;;;;;4.38;2.05;;;17.80;99.90;;;;;;6124999;23;20657;-73
2022/07/15 00:21:54;;;;;;;6.93;2.60;;;17.70;99.90;;;;;;6125768;23;20184;-73
2022/07/15 00:24:20;;;;;;;2.72;2.17;;;17.70;99.90;;;;;;6125800;23;20596;-73
2022/07/15 00:26:46;;;;;;;3.08;2.10;;;17.60;99.90;;;;;;6125832;23;20166;-73
2022/07/15 00:29:11;;;;;;;3.15;2.08;;;17.60;99.90;;;;;;6124410;23;20702;-73
2022/07/15 00:31:37;;;;;;;1.90;1.80;;;17.50;99.90;;;;;;6125591;23;20176;-73
2022/07/15 00:34:03;;;;;;;3.00;1.75;;;17.50;99.90;;;;;;6125955;23;20229;-74
2022/07/15 00:36:29;;;;;;;3.15;2.33;;;17.50;99.90;;;;;;6125789;23;20588;-73
2022/07/15 00:38:54;;;;;;;4.35;1.98;;;17.40;99.90;;;;;;6124961;23;20277;-73
2022/07/15 00:41:20;;;;;;;2.65;2.28;;;17.40;99.90;;;;;;6125635;23;20174;-74
2022/07/15 00:43:46;;;;;;;4.85;2.03;;;17.40;99.90;;;;;;6125642;23;20160;-73
2022/07/15 00:46:20;;;;;;;2.15;1.95;;;17.30;99.90;;;;;;6125522;23;20158;-73
2022/07/15 00:48:46;;;;;;;5.30;2.20;;;17.30;99.90;;;;;;6124302;23;20177;-75
2022/07/15 00:51:11;;;;;;;4.10;2.20;;;17.20;99.90;;;;;;6125545;23;20248;-74
2022/07/15 00:53:39;;;;;;;3.45;2.10;;;17.20;99.90;;;;;;6125620;23;20253;-74
2022/07/15 00:56:09;;;;;;;2.13;1.92;;;17.10;99.90;;;;;;6125600;23;20226;-73
2022/07/15 00:58:39;;;;;;;4.63;2.30;;;17.00;99.90;;;;;;6098803;23;20150;-73
2022/07/15 01:01:07;;;;;;;2.92;2.17;;;17.00;99.90;;;;;;6099297;23;20180;-74
2022/07/15 01:03:33;;;;;;;4.18;2.17;;;16.90;99.90;;;;;;6125366;23;20161;-74
2022/07/15 01:05:58;;;;;;;3.72;2.45;;;16.90;99.90;;;;;;6124236;23;20150;-74
2022/07/15 01:08:24;;;;;;;4.20;2.38;;;16.80;99.90;;;;;;6098660;23;20142;-73
2022/07/15 01:10:51;;;;;;;9.40;2.70;;;16.80;99.90;;;;;;6124595;23;20177;-74
2022/07/15 01:13:19;;;;;;;2.45;2.00;;;16.80;99.90;;;;;;6124055;23;20139;-74
2022/07/15 01:15:45;;;;;;;4.18;2.13;;;16.70;99.90;;;;;;6123897;23;20155;-74
2022/07/15 01:18:10;;;;;;;4.68;2.08;;;16.70;99.90;;;;;;6124870;23;20258;-74
2022/07/15 01:20:41;;;;;;;2.83;2.20;;;16.60;99.90;;;;;;6124775;23;20184;-74
2022/07/15 01:23:07;;;;;;;2.28;1.90;;;16.60;99.90;;;;;;6122991;23;20149;-74
2022/07/15 01:25:32;;;;;;;5.32;2.08;;;16.60;99.90;;;;;;6124786;23;20722;-73
2022/07/15 01:27:59;;;;;;;2.28;2.08;;;16.70;99.90;;;;;;6125383;23;20139;-74
2022/07/15 01:30:25;;;;;;;2.90;1.70;;;16.70;99.90;;;;;;6124031;23;20190;-73
2022/07/15 01:32:51;;;;;;;3.70;2.22;;;16.70;99.90;;;;;;6124177;23;20201;-74
2022/07/15 01:35:17;;;;;;;1.95;1.85;;;16.70;99.90;;;;;;6124873;23;20142;-73
2022/07/15 01:37:44;;;;;;;2.70;2.47;;;16.70;99.90;;;;;;6124372;23;20150;-73
2022/07/15 01:40:10;;;;;;;2.90;2.28;;;16.60;99.90;;;;;;6123163;23;20561;-73
2022/07/15 01:42:36;;;;;;;2.28;2.10;;;16.50;99.90;;;;;;6124380;23;20526;-73
2022/07/15 01:45:02;;;;;;;2.85;2.40;;;16.50;99.90;;;;;;6124684;23;20154;-73
2022/07/15 01:47:27;;;;;;;2.67;2.25;;;16.50;99.90;;;;;;6124865;23;20209;-73
2022/07/15 01:49:53;;;;;;;3.63;2.50;;;16.40;99.90;;;;;;6124272;23;20182;-73
2022/07/15 01:52:18;;;;;;;3.58;2.45;;;16.40;99.90;;;;;;6124776;23;20174;-73
2022/07/15 01:54:44;;;;;;;4.38;2.60;;;16.30;99.90;;;;;;6124713;23;20146;-73
2022/07/15 01:57:10;;;;;;;4.88;2.28;;;16.20;99.90;;;;;;6124464;23;20580;-74
2022/07/15 01:59:35;;;;;;;3.90;2.58;;;16.10;99.90;;;;;;6124450;23;20178;-74
2022/07/15 02:02:01;;;;;;;3.28;2.20;;;16.10;99.90;;;;;;6123665;23;20177;-74
2022/07/15 02:04:27;;;;;;;2.60;2.40;;;16.00;99.90;;;;;;6124928;23;20149;-74
2022/07/15 02:06:53;;;;;;;4.20;2.60;;;15.90;99.90;;;;;;6124379;23;20213;-74
2022/07/15 02:09:18;;;;;;;4.75;2.53;;;15.90;99.90;;;;;;6124304;23;20615;-75
2022/07/15 02:11:45;;;;;;;2.70;2.50;;;15.90;99.90;;;;;;6124768;23;20166;-74
2022/07/15 02:14:11;;;;;;;2.95;2.65;;;16.00;99.90;;;;;;6125004;23;20138;-73
2022/07/15 02:16:37;;;;;;;5.55;2.83;;;16.00;99.90;;;;;;6124351;23;20178;-74
2022/07/15 02:19:03;;;;;;;2.80;2.50;;;15.80;99.90;;;;;;6123879;23;20493;-74
2022/07/15 02:21:28;;;;;;;2.30;2.00;;;15.80;99.90;;;;;;6124806;23;20545;-74
2022/07/15 02:23:57;;;;;;;2.88;2.58;;;15.60;99.90;;;;;;6124641;23;20173;-74
2022/07/15 02:26:23;;;;;;;4.53;2.30;;;15.60;99.90;;;;;;6124669;23;20173;-74
2022/07/15 02:28:49;;;;;;;3.35;2.42;;;15.50;99.90;;;;;;6124570;23;20344;-74
2022/07/15 02:31:14;;;;;;;4.18;2.42;;;15.40;99.90;;;;;;6124795;23;20205;-73
2022/07/15 02:33:41;;;;;;;4.63;2.53;;;15.40;99.90;;;;;;6124536;23;20177;-73
2022/07/15 02:36:08;;;;;;;6.20;2.50;;;15.40;99.90;;;;;;6123948;23;20173;-73
2022/07/15 02:38:33;;;;;;;2.70;2.45;;;15.40;99.90;;;;;;6124769;23;20233;-73
2022/07/15 02:40:59;;;;;;;4.15;2.40;;;15.30;99.90;;;;;;6124191;23;20197;-73
2022/07/15 02:43:25;;;;;;;2.88;2.30;;;15.30;99.90;;;;;;6124752;23;20610;-73
2022/07/15 02:45:51;;;;;;;3.83;2.38;;;15.30;99.90;;;;;;6124669;23;20486;-73
2022/07/15 02:48:16;;;;;;;7.43;2.53;;;15.30;99.90;;;;;;6124702;23;20174;-73
2022/07/15 02:50:42;;;;;;;6.45;2.63;;;15.30;99.90;;;;;;6124046;23;20722;-73
2022/07/15 02:53:08;;;;;;;3.38;2.10;;;15.20;99.90;;;;;;6126246;23;20150;-73
2022/07/15 02:55:34;;;;;;;3.75;2.50;;;15.30;99.90;;;;;;6126785;23;20150;-73
2022/07/15 02:57:59;;;;;;;2.20;1.92;;;15.20;99.90;;;;;;6126510;23;20367;-73
2022/07/15 03:00:25;;;;;;;4.35;2.58;;;15.20;99.90;;;;;;6126120;23;20256;-74
2022/07/15 03:02:51;;;;;;;4.78;1.90;;;15.20;99.90;;;;;;6126901;23;20221;-74
2022/07/15 03:05:17;;;;;;;4.40;2.20;;;15.10;99.90;;;;;;6123957;23;20165;-74
2022/07/15 03:07:43;;;;;;;2.95;2.65;;;15.10;99.90;;;;;;6126620;23;20154;-73
2022/07/15 03:10:09;;;;;;;6.05;2.63;;;15.10;99.90;;;;;;6126262;23;20556;-73
2022/07/15 03:12:35;;;;;;;4.93;2.40;;;15.00;99.90;;;;;;6126462;23;20468;-73
2022/07/15 03:15:02;;;;;;;4.68;2.67;;;15.00;99.90;;;;;;6126309;23;20146;-72
2022/07/15 03:17:28;;;;;;;5.78;2.30;;;15.00;99.90;;;;;;6126617;23;20662;-73
2022/07/15 03:19:57;;;;;;;3.50;2.15;;;14.90;99.90;;;;;;6126251;23;20173;-72
2022/07/15 03:22:27;;;;;;;3.15;2.38;;;14.90;99.90;;;;;;6126526;23;20201;-73
2022/07/15 03:24:53;;;;;;;2.63;2.30;;;14.90;99.90;;;;;;6125679;23;20201;-73
2022/07/15 03:27:19;;;;;;;4.03;2.35;;;14.80;99.90;;;;;;6126442;23;20632;-73
2022/07/15 03:29:45;;;;;;;4.00;2.30;;;14.80;99.90;;;;;;6125522;23;20181;-73
2022/07/15 03:32:11;;;;;;;3.00;2.10;;;14.80;99.90;;;;;;6126375;23;20503;-73
2022/07/15 03:34:37;;;;;;;2.65;2.40;;;14.80;99.90;;;;;;6126296;23;20150;-73
2022/07/15 03:37:03;;;;;;;2.95;2.55;;;14.70;99.90;;;;;;6126720;23;20150;-73
2022/07/15 03:39:28;;;;;;;2.20;2.10;;;14.70;99.90;;;;;;6125915;23;20691;-73
2022/07/15 03:41:54;;;;;;;2.97;2.53;;;14.70;99.90;;;;;;6125842;23;20178;-72
2022/07/15 03:44:20;;;;;;;5.70;2.60;;;14.70;99.90;;;;;;6126183;23;20669;-73
2022/07/15 03:46:46;;;;;;;5.47;2.55;;;14.70;99.90;;;;;;6126370;23;20154;-73
2022/07/15 03:49:15;;;;;;;5.18;2.60;;;14.70;99.90;;;;;;6125866;23;20169;-72
2022/07/15 03:51:42;;;;;;;3.78;2.30;;;14.60;99.90;;;;;;6126079;23;20170;-73
2022/07/15 03:54:07;;;;;;;3.28;2.50;;;14.60;99.90;;;;;;6126687;23;20674;-72
2022/07/15 03:56:33;;;;;;;3.28;2.20;;;14.60;99.90;;;;;;6125929;23;20158;-74
2022/07/15 03:58:59;;;;;;;3.33;2.30;;;14.60;99.90;;;;;;6125064;23;20270;-74
2022/07/15 04:01:25;;;;;;;3.65;2.05;;;14.60;99.90;;;;;;6126219;23;20174;-74
2022/07/15 04:03:52;;;;;;;2.30;2.10;;;14.70;99.90;;;;;;6126231;23;20161;-74
2022/07/15 04:06:19;;;;;;;7.95;2.75;;;14.70;99.90;;;;;;6126439;23;20158;-74
2022/07/15 04:08:45;;;;;;;3.47;2.97;;;14.70;99.90;;;;;;6125152;23;20228;-74
2022/07/15 04:11:11;;;;;;;5.07;2.60;;;14.80;99.90;;;;;;6126316;23;20533;-75
2022/07/15 04:13:38;;;;;;;5.32;2.53;;;14.80;99.90;;;;;;6100450;23;20489;-75
2022/07/15 04:16:05;;;;;;;4.05;2.45;;;14.80;99.90;;;;;;6125956;23;20161;-74
2022/07/15 04:18:31;;;;;;;3.05;2.10;;;14.80;99.90;;;;;;6125392;23;20289;-74
2022/07/15 04:20:56;;;;;;;4.80;2.17;;;14.80;99.90;;;;;;6126263;23;20201;-73
2022/07/15 04:23:22;;;;;;;4.75;2.33;;;14.90;99.90;;;;;;6126132;23;20712;-72
2022/07/15 04:25:51;;;;;;;2.35;2.10;;;14.90;99.90;;;;;;6125392;23;20657;-73
2022/07/15 04:28:21;;;;;;;4.32;2.75;;;15.00;99.90;;;;;;6126094;23;20460;-73
2022/07/15 04:30:47;;;;;;;3.40;2.45;;;15.10;99.90;;;;;;6125624;23;20188;-72
2022/07/15 04:33:12;;;;;;;4.35;2.40;;;15.10;99.90;;;;;;6125865;23;20147;-73
2022/07/15 04:35:38;;;;;;;4.32;2.58;;;15.10;99.90;;;;;;6125180;23;20146;-72
2022/07/15 04:38:04;;;;;;;3.35;2.30;;;15.20;99.90;;;;;;6125765;23;20156;-72
2022/07/15 04:40:32;;;;;;;3.60;2.42;;;15.20;99.90;;;;;;6125725;23;20249;-72
2022/07/15 04:42:58;;;;;;;5.38;2.20;;;15.30;99.90;;;;;;6125420;23;20150;-72
2022/07/15 04:45:24;;;;;;;4.13;2.38;;;15.30;99.90;;;;;;6125312;23;20158;-72
2022/07/15 04:47:50;;;;;;;3.38;2.38;;;15.40;99.90;;;;;;6125943;23;20238;-72
2022/07/15 04:53:00;;;;;;;3.85;2.25;;;15.40;99.90;;;;;;6125479;23;20189;-72
2022/07/15 04:55:26;;;;;;;2.97;2.00;;;15.50;99.90;;;;;;6125693;23;20150;-72
2022/07/15 04:57:52;;;;;;;7.95;2.50;;;15.60;99.90;;;;;;6125654;23;20610;-72
2022/07/15 05:00:18;;;;;;;3.70;2.20;;;15.60;99.90;;;;;;6124919;23;20158;-72
2022/07/15 05:02:44;;;;;;;4.03;2.20;;;15.70;99.90;;;;;;6125312;23;20158;-72
2022/07/15 05:05:09;;;;;;;2.40;2.20;;;15.70;99.90;;;;;;6125142;23;20622;-72
2022/07/15 05:07:35;;;;;;;2.95;2.50;;;15.70;99.90;;;;;;6125523;23;20510;-72
2022/07/15 05:10:01;;;;;;;5.45;2.50;;;15.70;99.90;;;;;;6124464;23;20162;-73
2022/07/15 05:12:26;;;;;;;3.63;2.22;;;15.80;99.90;;;;;;6125239;23;20170;-73
2022/07/15 05:14:53;;;;;;;3.28;2.47;;;15.80;99.90;;;;;;6125224;23;20150;-72
2022/07/15 05:17:18;;;;;;;4.95;2.50;;;15.90;99.90;;;;;;6125533;23;20317;-72
2022/07/15 05:19:44;;;;;;;2.40;2.20;;;15.90;99.90;;;;;;6124815;23;20150;-72
2022/07/15 05:22:10;;;;;;;3.00;2.25;;;16.00;99.90;;;;;;6124940;23;20291;-72
2022/07/15 05:24:36;;;;;;;5.07;2.55;;;16.00;99.90;;;;;;6124938;23;20595;-72
2022/07/15 05:27:02;;;;;;;8.18;2.67;;;16.10;99.90;;;;;;6098994;23;20197;-73
2022/07/15 05:29:28;;;;;;;4.57;2.30;;;16.00;99.90;;;;;;6124832;23;20174;-76
2022/07/15 05:31:54;;;;;;;3.85;2.13;;;16.00;99.90;;;;;;6125318;23;20170;-72
2022/07/15 05:34:20;;;;;;;3.35;2.53;;;16.10;99.90;;;;;;6125337;23;20543;-72
2022/07/15 05:36:45;;;;;;;2.88;2.08;;;16.20;99.90;;;;;;6124931;23;20154;-72
2022/07/15 05:39:11;;;;;;;3.00;2.22;;;16.20;99.90;;;;;;6124312;23;20150;-73
2022/07/15 05:41:37;;;;;;;2.85;2.33;;;16.30;99.90;;;;;;6125175;23;20170;-73
2022/07/15 05:44:02;;;;;;;3.30;2.30;;;16.30;99.90;;;;;;6125321;23;20154;-72
2022/07/15 05:46:28;;;;;;;2.25;1.75;;;16.30;99.90;;;;;;6125067;23;20155;-73
2022/07/15 05:48:54;;;;;;;4.93;2.30;;;16.50;99.90;;;;;;6098901;23;20643;-72
2022/07/15 05:51:19;;;;;;;5.20;2.08;;;16.60;99.90;;;;;;6123379;23;20180;-73
2022/07/15 05:53:45;;;;;;;6.18;2.35;;;16.70;99.90;;;;;;6123683;23;20527;-72
2022/07/15 05:56:11;;;;;;;4.25;2.70;;;16.80;99.90;;;;;;6123562;23;20521;-73
2022/07/15 05:58:37;;;;;;;3.90;2.22;;;16.90;99.90;;;;;;6124225;23;20163;-73
2022/07/15 06:01:03;;;;;;;2.28;1.90;;;16.90;99.90;;;;;;6124554;23;20515;-71
2022/07/15 06:03:29;;;;;;;2.42;2.20;;;17.00;99.90;;;;;;6123736;23;20154;-72
2022/07/15 06:05:55;;;;;;;1.98;1.83;;;17.10;99.90;;;;;;6124618;23;20157;-72
2022/07/15 06:08:21;;;;;;;2.13;1.73;;;17.20;99.90;;;;;;6124876;23;20174;-72
2022/07/15 06:10:47;;;;;;;7.60;2.08;;;17.30;99.90;;;;;;6124542;23;20181;-72
2022/07/15 06:13:12;;;;;;;4.07;2.22;;;17.30;99.90;;;;;;6123980;23;20650;-72
2022/07/15 06:15:38;;;;;;;4.18;1.90;;;17.40;99.90;;;;;;6124754;23;20169;-72
2022/07/15 06:18:04;;;;;;;4.13;2.17;;;17.50;99.90;;;;;;6124469;23;20157;-71
2022/07/15 06:20:30;;;;;;;2.58;1.92;;;17.60;99.90;;;;;;6124238;23;20681;-71
2022/07/15 06:22:55;;;;;;;6.30;1.98;;;17.70;99.90;;;;;;6124601;23;20157;-71
2022/07/15 06:25:21;;;;;;;4.68;1.80;;;17.70;99.90;;;;;;6124778;23;20173;-72
2022/07/15 06:27:47;;;;;;;3.63;2.13;;;17.90;99.90;;;;;;6124377;23;20138;-73
2022/07/15 06:30:13;;;;;;;4.00;2.20;;;17.90;99.90;;;;;;6123249;23;20188;-74
2022/07/15 06:32:39;;;;;;;5.72;2.15;;;17.90;99.90;;;;;;6123787;23;20154;-74
2022/07/15 06:35:06;;;;;;;4.03;2.17;;;18.00;99.90;;;;;;6124566;23;20208;-74
2022/07/15 06:37:31;;;;;;;3.65;2.30;;;18.10;99.90;;;;;;6123000;23;20204;-74
2022/07/15 06:39:57;;;;;;;2.22;2.03;;;18.30;99.90;;;;;;6123535;23;20559;-73
2022/07/15 06:42:23;;;;;;;4.95;2.53;;;18.40;99.90;;;;;;6124497;23;20282;-74
2022/07/15 06:44:49;;;;;;;2.88;1.90;;;18.50;99.90;;;;;;6124398;23;20619;-75
2022/07/15 06:47:14;;;;;;;5.03;1.67;;;18.60;99.90;;;;;;6123030;23;20197;-74
2022/07/15 06:49:40;;;;;;;4.40;1.80;;;18.80;99.90;;;;;;6123098;23;20560;-75
2022/07/15 06:52:06;;;;;;;5.38;2.17;;;18.90;99.90;;;;;;6121299;23;20193;-77
2022/07/15 06:54:32;;;;;;;4.55;1.80;;;19.00;99.90;;;;;;6115476;23;20157;-74
2022/07/15 06:56:59;;;;;;;3.30;1.85;;;19.00;99.90;;;;;;6121645;23;20146;-74
2022/07/15 06:59:25;;;;;;;4.53;2.17;;;19.10;99.90;;;;;;6121601;23;20154;-74
2022/07/15 07:01:51;;;;;;;4.93;2.47;;;19.10;99.90;;;;;;6123490;23;20170;-74
2022/07/15 07:04:18;;;;;;;3.03;2.10;;;19.30;99.90;;;;;;6123721;23;20154;-76
2022/07/15 07:06:44;;;;;;;4.03;2.03;;;19.40;99.90;;;;;;6124284;23;20156;-75
2022/07/15 07:09:10;;;;;;;2.30;1.65;;;19.50;99.90;;;;;;6123972;23;20224;-75
2022/07/15 07:11:36;;;;;;;4.50;2.28;;;19.50;99.90;;;;;;6124318;23;20177;-76
2022/07/15 07:14:02;;;;;;;3.28;1.85;;;19.60;99.90;;;;;;6124675;23;20146;-76
2022/07/15 07:16:28;;;;;;;4.10;1.95;;;19.60;98.60;;;;;;6124393;23;20150;-74
2022/07/15 07:18:54;;;;;;;7.03;1.70;;;19.60;99.50;;;;;;6124133;23;20161;-75
2022/07/15 07:21:19;;;;;;;2.35;1.95;;;19.70;99.60;;;;;;6123778;23;20192;-74
2022/07/15 07:23:45;;;;;;;2.30;1.60;;;19.90;99.30;;;;;;6123977;23;20233;-74
2022/07/15 07:26:14;;;;;;;2.53;1.58;;;20.00;98.00;;;;;;6124437;23;20597;-74
2022/07/15 07:28:40;;;;;;;2.28;1.52;;;20.10;96.50;;;;;;6098051;23;20538;-74
2022/07/15 07:31:07;;;;;;;2.25;1.88;;;20.30;95.60;;;;;;6123946;23;20252;-74
2022/07/15 07:33:33;;;;;;;3.80;1.60;;;20.30;94.90;;;;;;6124446;23;20147;-74
2022/07/15 07:35:59;;;;;;;2.45;1.00;;;20.50;94.50;;;;;;6124223;23;20177;-74
2022/07/15 07:38:24;;;;;;;3.70;1.63;;;20.70;92.90;;;;;;6125444;23;20146;-75
2022/07/15 07:40:50;;;;;;;3.40;1.40;;;20.90;92.00;;;;;;6125250;23;20180;-74
2022/07/15 07:43:17;;;;;;;4.80;1.85;;;21.00;89.30;;;;;;6126021;23;20635;-74
2022/07/15 07:45:44;;;;;;;3.45;1.17;;;21.10;90.90;;;;;;6126219;23;20228;-77
2022/07/15 07:48:10;;;;;;;4.30;1.50;;;21.20;87.90;;;;;;6125682;23;20181;-74
2022/07/15 07:50:35;;;;;;;1.52;1.10;;;21.20;87.80;;;;;;6125292;23;20643;-74
2022/07/15 07:53:01;;;;;;;3.03;1.65;;;21.20;86.50;;;;;;6126033;23;20146;-74
2022/07/15 07:55:27;;;;;;;2.47;1.60;;;21.30;85.30;;;;;;6125599;23;20595;-74
2022/07/15 07:57:55;;;;;;;1.52;1.38;;;21.30;84.10;;;;;;6126096;23;20220;-74
2022/07/15 08:00:22;;;;;;;2.42;0.98;;;21.20;83.90;;;;;;6125169;23;20154;-74
2022/07/15 08:02:48;;;;;;;3.38;1.30;;;21.20;82.30;;;;;;6126125;23;20146;-74
2022/07/15 08:05:15;;;;;;;1.73;1.63;;;21.20;84.70;;;;;;6125854;23;20158;-74
2022/07/15 08:07:41;;;;;;;1.77;1.20;;;21.20;82.80;;;;;;6126002;23;20489;-74
2022/07/15 08:10:08;;;;;;;3.17;1.35;;;21.20;81.80;;;;;;6125352;23;20182;-74
2022/07/15 08:12:34;;;;;;;2.30;1.38;;;21.10;82.10;;;;;;6125801;23;20486;-74
2022/07/15 08:15:00;;;;;;;1.73;1.25;;;21.20;81.40;;;;;;6125483;23;20157;-75
2022/07/15 08:17:25;;;;;;;1.60;1.50;;;21.20;83.20;;;;;;6125885;23;20154;-75
2022/07/15 08:19:51;;;;;;;1.50;1.40;;;21.40;81.60;;;;;;6124921;23;20154;-74
2022/07/15 08:22:17;;;;;;;3.45;1.92;;;21.50;81.80;;;;;;6125695;23;20169;-74
2022/07/15 08:24:42;;;;;;;3.35;1.80;;;21.50;81.50;;;;;;6125429;23;20464;-74
2022/07/15 08:27:08;;;;;;;1.92;1.48;;;21.60;82.30;;;;;;6125649;23;20511;-75
2022/07/15 08:29:34;;;;;;;5.97;1.83;;;21.70;82.10;;;;;;6125378;23;20197;-74
2022/07/15 08:32:00;;;;;;;4.70;1.58;;;21.80;81.40;;;;;;6125556;23;20180;-75
2022/07/15 08:34:26;;;;;;;2.83;1.55;;;21.90;80.90;;;;;;6125309;23;20146;-75
2022/07/15 08:36:52;;;;;;;5.60;1.60;;;22.00;80.50;;;;;;6125627;23;20177;-74
2022/07/15 08:39:17;;;;;;;1.92;1.80;;;22.00;78.30;;;;;;6098924;23;20165;-74
2022/07/15 08:41:44;;;;;;;2.75;1.60;;;22.00;79.90;;;;;;6125020;23;20169;-72
2022/07/15 08:44:10;;;;;;;3.40;1.40;;;22.10;78.60;;;;;;6124706;23;20158;-72
2022/07/15 08:46:36;;;;;;;2.20;1.52;;;22.10;79.20;;;;;;6124774;23;20150;-72
2022/07/15 08:49:08;;;;;;;2.60;1.85;;;22.30;78.30;;;;;;6123883;23;20201;-73
2022/07/15 08:51:39;;;;;;;3.13;1.88;;;22.40;76.60;;;;;;6122537;23;20166;-73
2022/07/15 08:54:06;;;;;;;2.30;1.80;;;22.40;76.20;;;;;;6098073;23;20481;-73
2022/07/15 08:56:34;;;;;;;3.08;1.83;;;22.40;73.10;;;;;;6124491;23;20134;-73
2022/07/15 08:59:01;;;;;;;3.47;1.80;;;22.50;74.70;;;;;;6122766;23;20162;-73
2022/07/15 09:01:28;;;;;;;2.28;1.90;;;22.60;75.10;;;;;;6096854;23;20178;-73
2022/07/15 09:03:54;;;;;;;2.47;1.83;;;22.70;71.60;;;;;;6123133;23;20192;-73
2022/07/15 09:06:32;;;;;;;2.30;1.85;;;22.80;72.60;;;;;;6124630;23;20221;-72
2022/07/15 09:08:57;;;;;;;2.03;1.80;;;22.90;72.60;;;;;;6123678;23;20173;-74
2022/07/15 09:11:29;;;;;;;2.65;1.65;;;22.90;70.70;;;;;;6125160;23;20173;-75
2022/07/15 09:13:58;;;;;;;1.58;1.48;;;23.10;70.60;;;;;;6124964;23;20599;-73
2022/07/15 09:16:25;;;;;;;1.58;1.45;;;23.30;68.70;;;;;;6123517;23;20174;-74
2022/07/15 09:18:51;;;;;;;1.60;1.50;;;23.40;68.40;;;;;;6124490;23;20233;-72
2022/07/15 09:21:25;;;;;;;2.00;1.80;;;23.50;68.30;;;;;;6124816;23;20197;-72
2022/07/15 09:23:53;;;;;;;2.10;1.65;;;23.80;69.50;;;;;;6124825;23;20141;-72
2022/07/15 09:26:38;;;;;;;4.65;1.63;;;23.90;67.90;;;;;;6124390;23;20169;-72
2022/07/15 09:33:34;;;;;;;2.38;1.65;;;24.20;66.30;;;;;;6124145;23;20165;-74
2022/07/15 09:35:04;;;;;;;2.55;1.70;;;24.60;65.10;;;;;;6123987;23;20189;-74
2022/07/15 09:37:31;;;;;;;2.95;1.25;;;25.00;64.10;;;;;;6124724;23;20215;-71
2022/07/15 09:39:57;;;;;;;1.52;1.42;;;25.70;62.30;;;;;;6122855;23;20158;-72
2022/07/15 09:42:24;;;;;;;2.33;1.58;;;26.70;60.80;;;;;;6124626;23;20180;-72
2022/07/15 09:44:51;;;;;;;2.03;1.40;;;28.30;57.30;;;;;;6124744;23;20154;-72
2022/07/15 09:47:19;;;;;;;2.25;1.27;;;30.70;52.20;;;;;;6124739;23;20154;-71
2022/07/15 09:49:46;;;;;;;2.72;1.13;;;32.60;46.80;;;;;;6121577;23;20297;-71
2022/07/15 09:52:14;;;;;;;1.48;1.30;;;34.50;43.20;;;;;;6096932;23;20176;-71
2022/07/15 09:54:43;;;;;;;2.17;1.60;;;35.80;41.50;;;;;;6121545;23;20134;-71
2022/07/15 09:57:14;;;;;;;2.15;1.77;;;36.30;41.50;;;;;;6123462;23;20141;-74
2022/07/15 09:59:39;;;;;;;1.70;1.35;;;36.80;39.60;;;;;;6124002;23;20142;-72
2022/07/15 10:02:05;;;;;;;1.42;1.33;;;37.70;38.90;;;;;;6124238;23;20196;-69
2022/07/15 10:04:31;;;;;;;1.75;1.45;;;38.20;38.20;;;;;;6123779;23;20542;-70
2022/07/15 10:07:02;;;;;;;2.53;1.25;;;38.00;36.90;;;;;;6122905;23;20497;-70
2022/07/15 10:09:30;;;;;;;2.70;1.38;;;38.50;36.40;;;;;;6123386;23;20602;-69
2022/07/15 10:12:10;;;;;;;3.28;1.30;;;38.90;35.10;;;;;;6123083;23;20301;-69
2022/07/15 10:15:00;;;;;;;2.08;1.30;;;39.30;34.70;;;;;;6123877;23;20591;-70
2022/07/15 10:17:42;;;;;;;1.45;1.23;;;39.20;35.10;;;;;;6124260;23;20149;-69
2022/07/15 10:20:11;;;;;;;2.63;1.35;;;39.20;35.60;;;;;;6123730;23;20142;-73
2022/07/15 10:23:12;;;;;;;1.55;1.45;;;39.50;34.50;;;;;;6124701;23;20173;-71
2022/07/15 10:25:52;;;;;;;2.28;1.23;;;39.80;34.40;;;;;;6124221;23;20168;-71
2022/07/15 10:28:43;;;;;;;2.75;1.35;;;39.70;33.80;;;;;;6124672;23;20142;-70
2022/07/15 10:31:22;;;;;;;1.48;1.38;;;40.10;32.50;;;;;;6124172;23;20185;-71
2022/07/15 10:34:03;;;;;;;2.60;1.33;;;40.00;32.80;;;;;;6125030;23;20149;-72
2022/07/15 10:36:49;;;;;;;3.35;1.55;;;41.20;31.50;;;;;;6124392;23;20156;-71
2022/07/15 10:39:17;;;;;;;1.60;1.50;;;41.00;32.50;;;;;;6124148;23;20153;-71
2022/07/15 10:42:02;;;;;;;2.60;1.25;;;40.70;31.90;;;;;;6124060;23;20253;-71
2022/07/15 10:44:33;;;;;;;1.50;1.40;;;40.00;33.10;;;;;;6124582;23;20130;-72
2022/07/15 10:47:13;;;;;;;2.53;1.58;;;38.60;33.20;;;;;;6124621;23;20193;-73
2022/07/15 10:49:41;;;;;;;1.40;1.30;;;36.00;35.30;;;;;;6123455;23;20200;-71
2022/07/15 10:52:18;;;;;;;1.80;1.48;;;34.50;36.90;;;;;;6123991;23;20500;-72
2022/07/15 10:54:46;;;;;;;1.30;1.30;;;34.60;38.60;;;;;;6124030;23;20204;-69
2022/07/15 10:57:15;;;;;;;1.30;1.30;;;35.90;37.00;;;;;;6123772;23;20198;-69
2022/07/15 10:59:55;;;;;;;2.88;1.25;;;37.90;35.60;;;;;;6121360;23;20232;-70
2022/07/15 11:02:23;;;;;;;2.17;1.33;;;39.40;34.60;;;;;;6122203;23;20172;-70
2022/07/15 11:04:50;;;;;;;2.38;1.45;;;40.70;31.90;;;;;;6120360;23;20173;-72
2022/07/15 11:07:16;;;;;;;1.50;1.35;;;39.10;33.00;;;;;;6122887;23;20228;-71
2022/07/15 11:10:13;;;;;;;1.40;1.30;;;37.30;35.20;;;;;;6120145;23;20205;-72
2022/07/15 11:12:51;;;;;;;2.60;1.38;;;37.30;35.60;;;;;;6123341;23;20166;-72
2022/07/15 11:15:23;;;;;;;1.50;1.40;;;38.20;35.70;;;;;;6125876;23;20273;-72
2022/07/15 11:17:51;;;;;;;1.40;1.30;;;38.70;34.30;;;;;;6123944;23;20138;-72
2022/07/15 11:20:20;;;;;;;1.17;1.08;;;39.60;34.40;;;;;;6123832;23;20169;-73
2022/07/15 11:22:51;;;;;;;2.25;1.73;;;41.20;32.70;;;;;;6125687;23;20150;-72
2022/07/15 11:25:20;;;;;;;1.85;1.45;;;41.80;30.60;;;;;;6124761;23;20161;-73
2022/07/15 11:28:01;;;;;;;2.20;1.45;;;39.30;32.60;;;;;;6125598;23;20276;-72
2022/07/15 11:30:29;;;;;;;4.00;1.85;;;36.90;34.30;;;;;;6123532;23;20193;-69
2022/07/15 11:32:57;;;;;;;1.55;1.45;;;35.90;35.90;;;;;;6123957;23;20153;-70
2022/07/15 11:35:23;;;;;;;1.65;1.30;;;37.00;36.70;;;;;;6123020;23;20160;-69
2022/07/15 11:38:00;;;;;;;1.33;1.30;;;38.10;35.40;;;;;;6123026;23;20150;-69
2022/07/15 11:46:04;;;;;;;1.65;1.27;;;35.60;36.50;;;;;;6125410;23;20161;-69
2022/07/15 11:48:37;;;;;;;1.17;1.05;;;34.90;37.90;;;;;;6123213;23;20162;-69
2022/07/15 11:51:04;;;;;;;2.28;1.33;;;36.40;36.50;;;;;;6099343;23;20548;-69
2022/07/15 11:53:38;;;;;;;1.35;1.35;;;38.00;35.20;;;;;;6122469;23;20562;-70
2022/07/15 11:56:05;;;;;;;1.80;1.63;;;38.50;34.60;;;;;;6123552;23;20137;-70
2022/07/15 11:58:45;;;;;;;3.15;1.30;;;38.80;33.00;;;;;;6123786;23;20534;-70
2022/07/15 12:01:17;;;;;;;2.15;1.65;;;38.30;33.20;;;;;;6122368;23;20224;-70
2022/07/15 12:03:45;;;;;;;1.65;1.35;;;38.00;34.30;;;;;;6122408;23;20153;-70
2022/07/15 12:06:30;;;;;;;1.20;1.10;;;39.20;33.50;;;;;;6122370;23;20151;-70
2022/07/15 12:09:02;;;;;;;1.52;1.42;;;39.00;32.80;;;;;;6120937;23;20165;-70
2022/07/15 12:11:33;;;;;;;1.60;1.50;;;37.10;33.20;;;;;;6099186;23;20169;-69
2022/07/15 12:14:01;;;;;;;1.50;1.40;;;36.30;35.50;;;;;;6125604;23;20134;-70
2022/07/15 12:16:30;;;;;;;1.98;1.50;;;37.00;35.00;;;;;;6125268;23;20145;-70
2022/07/15 12:18:59;;;;;;;2.25;1.40;;;38.00;34.70;;;;;;6124510;23;20603;-69
2022/07/15 12:21:25;;;;;;;1.58;1.30;;;38.60;33.60;;;;;;6125046;23;20172;-70
2022/07/15 12:24:01;;;;;;;1.73;1.63;;;38.90;33.40;;;;;;6125422;23;20149;-70
2022/07/15 12:26:27;;;;;;;1.50;1.40;;;40.20;31.80;;;;;;6123851;23;20174;-70
2022/07/15 12:28:55;;;;;;;1.65;1.30;;;39.80;31.90;;;;;;6125202;23;20228;-70
2022/07/15 12:31:29;;;;;;;1.75;1.65;;;39.40;32.80;;;;;;6123963;23;20248;-70
2022/07/15 12:33:55;;;;;;;1.60;1.50;;;38.50;32.80;;;;;;6124350;23;20478;-70
2022/07/15 12:36:24;;;;;;;1.25;1.20;;;38.10;33.80;;;;;;6122934;23;20517;-70
2022/07/15 12:39:11;;;;;;;1.52;1.13;;;38.50;33.20;;;;;;6123493;23;20150;-70
2022/07/15 12:41:38;;;;;;;1.23;1.20;;;39.40;31.90;;;;;;6122034;23;20661;-70
2022/07/15 12:44:05;;;;;;;1.52;1.40;;;38.70;32.90;;;;;;6123500;23;20154;-70
2022/07/15 12:46:57;;;;;;;2.88;1.33;;;39.00;33.00;;;;;;6123490;23;20149;-70
2022/07/15 12:49:45;;;;;;;3.00;1.35;;;40.70;31.00;;;;;;6122123;23;20177;-70
2022/07/15 12:52:38;;;;;;;1.77;1.40;;;42.90;30.00;;;;;;6123667;23;20173;-72
2022/07/15 12:55:19;;;;;;;1.08;1.08;;;43.70;29.40;;;;;;6114921;23;20288;-72
2022/07/15 12:57:46;;;;;;;2.15;1.23;;;45.60;28.90;;;;;;6124645;23;20138;-72
2022/07/15 13:00:16;;;;;;;1.80;1.42;;;45.00;28.30;;;;;;6124595;23;20149;-72
2022/07/15 13:03:00;;;;;;;3.15;1.42;;;43.80;28.50;;;;;;6123080;23;20145;-69
2022/07/15 13:05:28;;;;;;;1.30;1.20;;;43.90;28.70;;;;;;6119526;23;20142;-72
2022/07/15 13:07:54;;;;;;;1.30;1.20;;;46.30;28.10;;;;;;6123928;23;20232;-72